Time;durP1;ratioP1;P1;durP2;ratioP2;P2;SDS_P1;SDS_P2;PMS_P1;PMS_P2;Temp;Humidity;BMP_temperature;BMP_pressure;BME280_temperature;BME280_humidity;BME280_pressure;Samples;Min_cycle;Max_cycle;Signal;HPM_P1;HPM_P2
2022/05/15 00:00:50;;;;;;;34.27;5.73;;;12.40;99.90;;;;;;5052423;28;20686;-83
2022/05/15 00:03:23;;;;;;;18.07;4.97;;;12.40;99.90;;;;;;5034034;28;20173;-82
2022/05/15 00:05:59;;;;;;;22.63;5.40;;;12.40;99.90;;;;;;5036585;28;20212;-83
2022/05/15 00:08:27;;;;;;;24.90;5.57;;;12.30;99.90;;;;;;5038472;28;20173;-83
2022/05/15 00:10:53;;;;;;;21.60;4.50;;;12.20;99.90;;;;;;5038074;28;20190;-82
2022/05/15 00:13:20;;;;;;;26.53;5.33;;;12.00;99.90;;;;;;5037878;28;20204;-83
2022/05/15 00:15:46;;;;;;;25.70;5.13;;;12.20;99.90;;;;;;5038051;28;20173;-82
2022/05/15 00:18:12;;;;;;;22.83;4.60;;;12.20;99.90;;;;;;5038293;28;20518;-82
2022/05/15 00:20:39;;;;;;;24.17;4.93;;;12.20;99.90;;;;;;5037947;28;20190;-83
2022/05/15 00:23:08;;;;;;;23.07;5.30;;;12.10;99.90;;;;;;5037716;28;20261;-82
2022/05/15 00:25:35;;;;;;;23.87;5.60;;;12.20;99.90;;;;;;5055821;28;20206;-83
2022/05/15 00:28:00;;;;;;;18.33;4.80;;;12.10;99.90;;;;;;5038041;28;20521;-83
2022/05/15 00:30:27;;;;;;;24.43;4.80;;;12.10;99.90;;;;;;5037863;28;20201;-82
2022/05/15 00:32:53;;;;;;;20.70;4.80;;;12.00;99.90;;;;;;5037639;28;20164;-82
2022/05/15 00:35:19;;;;;;;20.53;5.33;;;12.00;99.90;;;;;;5037713;28;20260;-82
2022/05/15 00:37:45;;;;;;;22.23;4.93;;;12.10;99.90;;;;;;5037221;28;20197;-82
2022/05/15 00:40:14;;;;;;;22.50;4.90;;;12.00;99.90;;;;;;5037802;28;20186;-82
2022/05/15 00:42:40;;;;;;;23.20;5.00;;;11.90;99.90;;;;;;5037449;28;20181;-82
2022/05/15 00:45:07;;;;;;;21.27;4.97;;;11.90;99.90;;;;;;5037471;28;20178;-83
2022/05/15 00:47:33;;;;;;;19.87;4.87;;;11.90;99.90;;;;;;5037461;28;20178;-82
2022/05/15 00:49:59;;;;;;;19.70;4.33;;;11.70;99.90;;;;;;5037509;28;20216;-82
2022/05/15 00:52:28;;;;;;;20.23;4.30;;;11.80;99.90;;;;;;5037111;28;20184;-82
2022/05/15 00:55:09;;;;;;;20.33;5.03;;;11.80;99.90;;;;;;5037362;28;20188;-82
2022/05/15 00:57:40;;;;;;;22.47;4.93;;;11.80;99.90;;;;;;5037288;28;20678;-83
2022/05/15 01:00:13;;;;;;;22.13;4.80;;;11.70;99.90;;;;;;5037766;28;20239;-83
2022/05/15 01:02:48;;;;;;;17.57;4.57;;;11.60;99.90;;;;;;5037457;28;20179;-83
2022/05/15 01:05:14;;;;;;;20.00;4.47;;;11.50;99.90;;;;;;5037596;28;20205;-82
2022/05/15 01:07:40;;;;;;;20.60;4.73;;;11.60;99.90;;;;;;5037826;28;20212;-82
2022/05/15 01:10:08;;;;;;;19.20;4.27;;;11.60;99.90;;;;;;5037985;28;20201;-83
2022/05/15 01:12:35;;;;;;;19.97;4.87;;;11.50;99.90;;;;;;5037501;28;20180;-82
2022/05/15 01:15:01;;;;;;;24.77;4.87;;;11.40;99.90;;;;;;5038010;28;20230;-82
2022/05/15 01:17:27;;;;;;;18.67;5.00;;;11.30;99.90;;;;;;5036970;28;20208;-82
2022/05/15 01:20:08;;;;;;;19.00;4.70;;;11.50;99.90;;;;;;5037863;28;20205;-83
2022/05/15 01:22:34;;;;;;;16.73;4.83;;;11.40;99.90;;;;;;5037593;28;20208;-82
2022/05/15 01:25:00;;;;;;;22.70;4.80;;;11.30;99.90;;;;;;5037740;28;20649;-82
2022/05/15 01:27:26;;;;;;;18.10;4.67;;;11.40;99.90;;;;;;5037422;28;20185;-82
2022/05/15 01:29:52;;;;;;;20.83;4.03;;;11.40;99.90;;;;;;5038019;28;20568;-82
2022/05/15 01:32:17;;;;;;;18.00;4.60;;;11.50;99.90;;;;;;5037521;28;20181;-83
2022/05/15 01:34:43;;;;;;;23.90;5.00;;;11.30;99.90;;;;;;5037996;28;20166;-82
2022/05/15 01:37:09;;;;;;;17.27;3.87;;;11.20;99.90;;;;;;5038260;28;20207;-82
2022/05/15 01:39:36;;;;;;;22.73;5.07;;;11.20;99.90;;;;;;5038723;28;20583;-83
2022/05/15 01:42:03;;;;;;;18.57;5.00;;;11.10;99.90;;;;;;5038689;28;20193;-83
2022/05/15 01:44:29;;;;;;;23.13;5.50;;;11.10;99.90;;;;;;5038464;28;20296;-84
2022/05/15 01:46:55;;;;;;;20.60;5.00;;;11.10;99.90;;;;;;5038183;28;20272;-83
2022/05/15 01:49:20;;;;;;;11.63;4.03;;;11.00;99.90;;;;;;5038550;28;20585;-83
2022/05/15 01:51:46;;;;;;;17.67;4.67;;;11.10;99.90;;;;;;5038173;28;20219;-83
2022/05/15 01:54:13;;;;;;;24.90;4.80;;;11.10;99.90;;;;;;5038651;28;20185;-82
2022/05/15 01:56:39;;;;;;;13.00;4.60;;;11.00;99.90;;;;;;5039177;28;20206;-82
2022/05/15 01:59:06;;;;;;;19.63;4.63;;;11.00;99.90;;;;;;5038758;28;20181;-81
2022/05/15 02:01:32;;;;;;;23.00;5.03;;;11.00;99.90;;;;;;5038911;28;20199;-81
2022/05/15 02:03:58;;;;;;;23.20;5.53;;;10.80;99.90;;;;;;5039137;28;20176;-81
2022/05/15 02:06:24;;;;;;;18.93;5.00;;;10.90;99.90;;;;;;5038969;28;20183;-82
2022/05/15 02:08:50;;;;;;;15.67;5.43;;;10.90;99.90;;;;;;5039534;28;20186;-82
2022/05/15 02:11:16;;;;;;;20.03;4.70;;;10.80;99.90;;;;;;5038450;28;20260;-82
2022/05/15 02:13:41;;;;;;;19.40;4.97;;;10.80;99.90;;;;;;5039063;28;20183;-82
2022/05/15 02:16:08;;;;;;;18.33;4.77;;;10.70;99.90;;;;;;5039142;28;20209;-82
2022/05/15 02:18:34;;;;;;;19.43;4.60;;;10.60;99.90;;;;;;5038789;28;20174;-82
2022/05/15 02:20:59;;;;;;;16.43;4.43;;;10.90;99.90;;;;;;5038375;28;20296;-82
2022/05/15 02:23:26;;;;;;;16.93;4.70;;;10.90;99.90;;;;;;5038966;28;20218;-82
2022/05/15 02:25:52;;;;;;;14.50;4.20;;;10.90;99.90;;;;;;5038493;28;20639;-82
2022/05/15 02:28:18;;;;;;;13.47;4.33;;;10.90;99.90;;;;;;5037167;28;20317;-82
2022/05/15 02:30:47;;;;;;;22.37;4.53;;;10.90;99.90;;;;;;5038167;28;20240;-82
2022/05/15 02:33:13;;;;;;;11.50;3.90;;;10.70;99.90;;;;;;5037889;28;20257;-82
2022/05/15 02:35:38;;;;;;;18.60;4.53;;;10.70;99.90;;;;;;5038371;28;20174;-82
2022/05/15 02:38:04;;;;;;;20.27;4.50;;;10.60;99.90;;;;;;5038463;28;20210;-82
2022/05/15 02:40:30;;;;;;;17.53;4.33;;;10.40;99.90;;;;;;5038456;28;20196;-82
2022/05/15 02:42:56;;;;;;;15.90;4.93;;;10.50;99.90;;;;;;5038187;28;20183;-82
2022/05/15 02:45:23;;;;;;;15.60;4.30;;;10.50;99.90;;;;;;5037920;28;20524;-82
2022/05/15 02:47:48;;;;;;;17.80;5.20;;;10.50;99.90;;;;;;5038315;28;20185;-82
2022/05/15 02:52:59;;;;;;;21.90;4.93;;;10.30;99.90;;;;;;5056554;28;20203;-82
2022/05/15 02:55:25;;;;;;;18.83;4.70;;;10.40;99.90;;;;;;5037847;28;20178;-81
2022/05/15 02:57:52;;;;;;;13.43;4.20;;;10.30;99.90;;;;;;5038044;28;20220;-82
2022/05/15 03:00:20;;;;;;;18.87;4.73;;;10.40;99.90;;;;;;5037206;28;20299;-82
2022/05/15 03:02:46;;;;;;;21.53;5.13;;;10.40;99.90;;;;;;5037668;28;20186;-82
2022/05/15 03:05:13;;;;;;;19.03;5.47;;;10.30;99.90;;;;;;5055786;28;20170;-82
2022/05/15 03:07:39;;;;;;;23.70;5.50;;;10.30;99.90;;;;;;5037712;28;20659;-82
2022/05/15 03:10:06;;;;;;;16.60;4.90;;;10.20;99.90;;;;;;5037515;28;20227;-82
2022/05/15 03:12:32;;;;;;;16.93;5.20;;;10.20;99.90;;;;;;5037191;28;20574;-81
2022/05/15 03:14:58;;;;;;;19.63;5.27;;;10.30;99.90;;;;;;5037749;28;20185;-82
2022/05/15 03:17:24;;;;;;;19.50;4.77;;;10.30;99.90;;;;;;5038304;28;20578;-82
2022/05/15 03:19:51;;;;;;;14.47;5.03;;;10.40;99.90;;;;;;5037518;28;20670;-82
2022/05/15 03:22:16;;;;;;;21.77;4.80;;;10.30;99.90;;;;;;5038324;28;20176;-82
2022/05/15 03:24:42;;;;;;;12.43;4.47;;;10.10;99.90;;;;;;5038246;28;20184;-82
2022/05/15 03:27:08;;;;;;;18.57;4.60;;;10.20;99.90;;;;;;5038422;28;20190;-82
2022/05/15 03:29:34;;;;;;;17.77;4.87;;;10.20;99.90;;;;;;5037459;28;20660;-82
2022/05/15 03:31:59;;;;;;;16.47;4.63;;;10.30;99.90;;;;;;5037280;28;20183;-82
2022/05/15 03:34:25;;;;;;;18.60;5.17;;;10.20;99.90;;;;;;5038131;28;20183;-82
2022/05/15 03:36:52;;;;;;;21.20;4.67;;;10.10;99.90;;;;;;5042213;28;20617;-81
2022/05/15 03:39:19;;;;;;;21.33;5.00;;;10.10;99.90;;;;;;5041796;28;20201;-82
2022/05/15 03:41:49;;;;;;;14.00;5.20;;;10.10;99.90;;;;;;5041955;28;20203;-82
2022/05/15 03:44:15;;;;;;;20.03;5.00;;;10.20;99.90;;;;;;5042527;28;20186;-82
2022/05/15 03:46:43;;;;;;;19.73;4.87;;;10.10;99.90;;;;;;5041997;28;20713;-82
2022/05/15 03:49:09;;;;;;;16.03;5.23;;;10.10;99.90;;;;;;5041628;28;20178;-82
2022/05/15 03:51:35;;;;;;;25.53;5.60;;;10.20;99.90;;;;;;5041978;28;20227;-82
2022/05/15 03:54:00;;;;;;;21.50;5.23;;;10.20;99.90;;;;;;5042233;28;20178;-82
2022/05/15 03:59:12;;;;;;;18.40;5.50;;;10.00;99.90;;;;;;5059362;28;20193;-82
2022/05/15 04:01:38;;;;;;;15.37;5.00;;;10.10;99.90;;;;;;5041182;28;20219;-82
2022/05/15 04:04:04;;;;;;;17.23;5.13;;;10.20;99.90;;;;;;5038283;28;20176;-82
2022/05/15 04:06:30;;;;;;;13.60;4.40;;;10.30;99.90;;;;;;5037642;28;20178;-82
2022/05/15 04:08:56;;;;;;;25.20;5.13;;;10.00;99.90;;;;;;5038591;28;20531;-82
2022/05/15 04:11:22;;;;;;;14.10;4.73;;;10.10;99.90;;;;;;5038209;28;20240;-82
2022/05/15 04:13:47;;;;;;;17.30;5.20;;;10.30;99.90;;;;;;5038825;28;20185;-82
2022/05/15 04:16:13;;;;;;;16.17;4.87;;;10.20;99.90;;;;;;5039128;28;20205;-82
2022/05/15 04:18:39;;;;;;;15.67;4.77;;;10.20;99.90;;;;;;5040658;28;20182;-82
2022/05/15 04:21:05;;;;;;;19.40;4.60;;;10.20;99.90;;;;;;5039843;28;20190;-82
2022/05/15 04:23:31;;;;;;;12.27;4.90;;;10.40;99.90;;;;;;5038552;28;20290;-81
2022/05/15 04:25:57;;;;;;;25.60;5.93;;;10.30;99.90;;;;;;5038646;28;20170;-82
2022/05/15 04:28:22;;;;;;;17.23;4.73;;;10.30;99.90;;;;;;5038811;28;20177;-82
2022/05/15 04:30:48;;;;;;;17.50;5.20;;;10.40;99.90;;;;;;5056200;28;20312;-82
2022/05/15 04:33:14;;;;;;;17.17;4.93;;;10.40;99.90;;;;;;5037552;28;20173;-82
2022/05/15 04:35:40;;;;;;;16.23;5.40;;;10.50;99.90;;;;;;5039051;28;20619;-83
2022/05/15 04:38:09;;;;;;;18.07;5.10;;;10.60;99.90;;;;;;5035271;28;20180;-83
2022/05/15 04:40:34;;;;;;;16.80;4.70;;;10.60;99.90;;;;;;5035964;28;20234;-84
2022/05/15 04:43:00;;;;;;;17.27;4.60;;;10.90;99.90;;;;;;5035970;28;20179;-84
2022/05/15 04:45:27;;;;;;;17.17;4.70;;;11.20;99.90;;;;;;5039298;28;20216;-82
2022/05/15 04:47:53;;;;;;;18.93;4.50;;;11.50;99.90;;;;;;5036511;28;20189;-82
2022/05/15 04:50:19;;;;;;;22.27;4.83;;;11.50;99.90;;;;;;5036659;28;20217;-82
2022/05/15 04:52:46;;;;;;;14.23;4.40;;;11.80;99.90;;;;;;5038328;28;20549;-82
2022/05/15 04:55:12;;;;;;;14.93;4.10;;;11.90;99.90;;;;;;5040607;28;20185;-82
2022/05/15 04:57:38;;;;;;;14.20;4.40;;;11.90;99.90;;;;;;5040216;28;20666;-82
2022/05/15 05:00:11;;;;;;;15.63;3.73;;;11.90;99.90;;;;;;5041009;28;20228;-82
2022/05/15 05:02:37;;;;;;;11.00;4.27;;;11.90;99.90;;;;;;5045396;28;20218;-82
2022/05/15 05:05:04;;;;;;;10.63;4.27;;;11.70;99.90;;;;;;5044903;28;20180;-83
2022/05/15 05:07:30;;;;;;;16.57;3.93;;;11.90;99.90;;;;;;5045138;28;20176;-82
2022/05/15 05:09:56;;;;;;;17.33;4.67;;;12.00;99.90;;;;;;5044713;28;20674;-82
2022/05/15 05:12:22;;;;;;;10.60;4.23;;;12.10;99.90;;;;;;5044823;28;20174;-82
2022/05/15 05:14:48;;;;;;;12.60;3.83;;;12.30;99.90;;;;;;5044472;28;20201;-83
2022/05/15 05:17:14;;;;;;;11.00;3.70;;;12.50;99.90;;;;;;5043689;28;20245;-83
2022/05/15 05:19:40;;;;;;;14.07;4.27;;;12.70;99.90;;;;;;5043580;28;20170;-82
2022/05/15 05:22:06;;;;;;;14.60;4.07;;;12.80;99.90;;;;;;5043704;28;20184;-82
2022/05/15 05:24:31;;;;;;;11.47;4.03;;;12.70;99.90;;;;;;5043412;28;20218;-82
2022/05/15 05:27:00;;;;;;;20.03;4.10;;;12.80;99.90;;;;;;5039813;28;20641;-82
2022/05/15 05:29:26;;;;;;;12.27;4.20;;;12.80;99.90;;;;;;5039600;28;20188;-82
2022/05/15 05:31:52;;;;;;;13.13;4.20;;;13.00;99.90;;;;;;5039587;28;20558;-82
2022/05/15 05:34:18;;;;;;;17.23;4.07;;;13.00;99.90;;;;;;5039595;28;20162;-82
2022/05/15 05:36:44;;;;;;;15.87;4.40;;;13.00;99.90;;;;;;5047281;23;20218;-80
2022/05/15 05:39:10;;;;;;;20.60;4.20;;;13.30;99.90;;;;;;5017185;28;20171;-79
2022/05/15 05:41:35;;;;;;;12.30;4.40;;;13.40;99.90;;;;;;5016873;28;20200;-77
2022/05/15 05:44:01;;;;;;;15.90;3.83;;;13.50;99.90;;;;;;5017072;28;20265;-79
2022/05/15 05:46:28;;;;;;;11.50;4.50;;;13.50;99.90;;;;;;5034453;28;20691;-79
2022/05/15 05:48:55;;;;;;;14.07;4.27;;;13.90;99.90;;;;;;5017039;28;20178;-78
2022/05/15 05:51:21;;;;;;;18.10;4.20;;;14.10;99.90;;;;;;5016313;28;20236;-80
2022/05/15 05:53:47;;;;;;;10.27;3.40;;;14.20;99.90;;;;;;5016936;28;20205;-79
2022/05/15 05:56:12;;;;;;;15.80;4.00;;;14.50;99.90;;;;;;5016654;28;20225;-79
2022/05/15 05:58:38;;;;;;;17.67;4.00;;;14.90;99.90;;;;;;5017053;28;20224;-80
2022/05/15 06:01:04;;;;;;;15.87;4.40;;;14.90;99.90;;;;;;5016533;28;20225;-78
2022/05/15 06:06:13;;;;;;;14.00;3.83;;;15.30;99.90;;;;;;5036565;28;20273;-81
2022/05/15 06:08:42;;;;;;;17.43;4.00;;;15.60;99.90;;;;;;5019388;28;20196;-81
2022/05/15 06:11:08;;;;;;;13.43;3.60;;;16.30;99.90;;;;;;5017404;28;20198;-79
2022/05/15 06:13:35;;;;;;;12.17;3.33;;;16.70;99.90;;;;;;5017263;28;20232;-78
2022/05/15 06:16:01;;;;;;;13.83;3.23;;;16.80;99.90;;;;;;5018011;28;20186;-80
2022/05/15 06:18:27;;;;;;;14.50;3.80;;;16.70;99.90;;;;;;5020511;28;20201;-80
2022/05/15 06:20:53;;;;;;;8.60;3.15;;;17.20;99.90;;;;;;5018115;28;20190;-81
2022/05/15 06:23:19;;;;;;;13.10;3.33;;;17.20;99.90;;;;;;5018294;28;20166;-81
2022/05/15 06:25:45;;;;;;;14.95;4.05;;;17.10;99.90;;;;;;5018831;28;20224;-81
2022/05/15 06:28:11;;;;;;;11.63;3.53;;;17.50;99.90;;;;;;5017949;28;20166;-81
2022/05/15 06:30:37;;;;;;;13.60;3.60;;;17.70;99.90;;;;;;5017051;28;20193;-83
2022/05/15 06:33:06;;;;;;;16.20;4.25;;;17.90;99.90;;;;;;5016886;28;20331;-81
2022/05/15 06:35:32;;;;;;;13.95;3.70;;;18.00;99.90;;;;;;5017163;28;20327;-80
2022/05/15 06:38:02;;;;;;;15.10;4.00;;;18.40;98.90;;;;;;5016604;28;20212;-78
2022/05/15 06:40:28;;;;;;;10.93;3.53;;;18.70;98.30;;;;;;5017060;28;20201;-79
2022/05/15 06:42:54;;;;;;;14.50;3.95;;;18.30;97.10;;;;;;5017152;28;20170;-82
2022/05/15 06:45:19;;;;;;;11.82;3.92;;;18.50;97.80;;;;;;5017131;28;20247;-79
2022/05/15 06:47:45;;;;;;;15.98;4.07;;;18.60;97.20;;;;;;5017156;28;20174;-79
2022/05/15 06:50:11;;;;;;;15.70;4.18;;;18.50;97.00;;;;;;5017546;28;20194;-80
2022/05/15 06:52:38;;;;;;;13.02;3.80;;;18.30;96.60;;;;;;5016452;28;20174;-82
2022/05/15 06:55:10;;;;;;;18.98;4.28;;;18.70;96.70;;;;;;5016701;28;20181;-81
2022/05/15 06:57:36;;;;;;;20.23;3.90;;;19.40;96.00;;;;;;5017103;28;20194;-80
2022/05/15 07:00:12;;;;;;;15.65;4.15;;;19.00;94.70;;;;;;5016893;28;20662;-79
2022/05/15 07:02:37;;;;;;;12.93;4.20;;;19.70;95.70;;;;;;5035306;28;20161;-79
2022/05/15 07:05:04;;;;;;;14.90;3.88;;;20.00;95.50;;;;;;5016140;28;20656;-81
2022/05/15 07:07:31;;;;;;;22.05;4.60;;;19.90;93.70;;;;;;5016592;28;20177;-79
2022/05/15 07:09:56;;;;;;;23.65;4.18;;;19.70;93.90;;;;;;5016816;28;20670;-81
2022/05/15 07:12:24;;;;;;;17.92;4.10;;;20.00;93.30;;;;;;5016348;28;20182;-81
2022/05/15 07:14:50;;;;;;;17.38;3.95;;;20.10;92.90;;;;;;5015790;28;20753;-82
2022/05/15 07:17:15;;;;;;;15.18;4.38;;;20.30;92.10;;;;;;5016032;28;20209;-80
2022/05/15 07:19:41;;;;;;;11.57;4.13;;;20.20;92.70;;;;;;5015349;28;20257;-81
2022/05/15 07:22:07;;;;;;;17.85;4.28;;;20.20;92.60;;;;;;5016345;28;20267;-80
2022/05/15 07:24:33;;;;;;;8.68;3.42;;;20.50;93.00;;;;;;5016183;28;20646;-81
2022/05/15 07:26:59;;;;;;;16.38;4.00;;;21.00;91.10;;;;;;5015778;28;20549;-82
2022/05/15 07:29:25;;;;;;;11.90;3.40;;;21.40;91.50;;;;;;5015307;28;20266;-81
2022/05/15 07:31:53;;;;;;;12.73;3.70;;;21.20;90.90;;;;;;5015495;28;20225;-79
2022/05/15 07:34:19;;;;;;;12.77;3.67;;;21.90;90.00;;;;;;5016321;28;20650;-82
2022/05/15 07:36:50;;;;;;;16.60;3.65;;;21.50;90.30;;;;;;5014995;28;20579;-78
2022/05/15 07:39:16;;;;;;;16.25;4.25;;;22.10;90.30;;;;;;5015827;28;20243;-78
2022/05/15 07:41:42;;;;;;;11.93;3.88;;;21.80;91.00;;;;;;5016856;28;20570;-83
2022/05/15 07:44:08;;;;;;;17.00;4.00;;;21.90;90.00;;;;;;5015909;28;20170;-78
2022/05/15 07:46:34;;;;;;;12.27;3.88;;;22.40;89.60;;;;;;5015675;28;20216;-78
2022/05/15 07:48:59;;;;;;;16.77;3.97;;;21.60;89.10;;;;;;5015935;28;20197;-81
2022/05/15 07:51:25;;;;;;;18.30;3.63;;;21.70;88.90;;;;;;5015366;28;20237;-81
2022/05/15 07:53:51;;;;;;;9.27;3.72;;;22.50;89.70;;;;;;5015639;28;20209;-81
2022/05/15 07:56:16;;;;;;;14.93;3.58;;;22.50;89.00;;;;;;5015539;28;20703;-81
2022/05/15 07:58:43;;;;;;;16.85;4.72;;;22.90;87.00;;;;;;5015894;28;20269;-81
2022/05/15 08:01:09;;;;;;;22.10;4.40;;;22.60;88.30;;;;;;5016116;28;20559;-80
2022/05/15 08:03:43;;;;;;;12.43;3.67;;;22.70;85.20;;;;;;5015550;28;20177;-81
2022/05/15 08:08:59;;;;;;;16.75;4.15;;;22.60;84.00;;;;;;5033549;28;20224;-82
2022/05/15 08:11:28;;;;;;;13.70;4.05;;;22.50;83.80;;;;;;5015747;28;20541;-80
2022/05/15 08:13:57;;;;;;;16.88;4.15;;;23.00;85.50;;;;;;5015993;28;20519;-81
2022/05/15 08:16:24;;;;;;;12.55;4.10;;;23.20;83.30;;;;;;5014928;28;20283;-81
2022/05/15 08:24:19;;;;;;;11.10;4.03;;;22.50;83.30;;;;;;5032878;28;20197;-80
2022/05/15 08:26:45;;;;;;;16.02;3.95;;;22.80;83.40;;;;;;5017287;28;20643;-81
2022/05/15 08:29:11;;;;;;;19.05;4.32;;;23.10;80.70;;;;;;5018389;28;20201;-79
2022/05/15 08:31:38;;;;;;;10.75;3.80;;;22.90;83.50;;;;;;5018398;28;20194;-81
2022/05/15 08:34:04;;;;;;;15.55;3.80;;;23.20;81.90;;;;;;5018765;28;20225;-80
2022/05/15 08:36:31;;;;;;;12.95;4.00;;;23.00;80.50;;;;;;5018852;28;20213;-80
2022/05/15 08:38:57;;;;;;;13.45;3.63;;;23.70;82.40;;;;;;5019169;28;20180;-79
2022/05/15 08:41:31;;;;;;;14.07;4.05;;;22.70;80.80;;;;;;5018769;28;20190;-78
2022/05/15 08:44:29;;;;;;;17.75;3.90;;;24.10;80.50;;;;;;5018939;28;20197;-81
2022/05/15 08:47:21;;;;;;;13.18;3.90;;;24.80;78.10;;;;;;5018902;28;20185;-80
2022/05/15 08:49:58;;;;;;;11.88;3.53;;;24.00;79.80;;;;;;5019879;28;20183;-80
2022/05/15 08:52:38;;;;;;;14.05;3.70;;;24.10;78.30;;;;;;5018198;28;20185;-80
2022/05/15 08:55:16;;;;;;;10.98;3.20;;;24.00;79.40;;;;;;5019029;28;20174;-80
2022/05/15 08:58:02;;;;;;;12.63;3.83;;;24.30;78.80;;;;;;5019202;28;20229;-79
2022/05/15 09:00:33;;;;;;;14.88;4.15;;;25.00;77.10;;;;;;5020294;28;20200;-81
2022/05/15 09:03:24;;;;;;;21.40;3.80;;;25.00;76.50;;;;;;5019574;28;20170;-81
2022/05/15 09:06:42;;;;;;;16.67;3.90;;;24.20;78.80;;;;;;5020187;28;20234;-81
2022/05/15 09:09:29;;;;;;;12.90;3.75;;;24.70;75.80;;;;;;5018617;28;20269;-81
2022/05/15 09:12:22;;;;;;;10.38;3.20;;;24.50;77.30;;;;;;5018434;28;20661;-81
2022/05/15 09:15:20;;;;;;;13.48;3.60;;;24.30;75.20;;;;;;5018543;28;20174;-81
2022/05/15 09:18:02;;;;;;;12.40;3.70;;;24.50;78.20;;;;;;5018979;28;20206;-80
2022/05/15 09:20:48;;;;;;;14.60;3.47;;;24.30;73.50;;;;;;5018055;28;20186;-80
2022/05/15 09:23:29;;;;;;;12.82;3.58;;;24.50;75.70;;;;;;5021220;28;20177;-81
2022/05/15 09:26:22;;;;;;;19.55;3.80;;;24.00;74.30;;;;;;5024652;28;20162;-83
2022/05/15 09:29:01;;;;;;;14.50;3.72;;;24.60;71.90;;;;;;5023695;28;20194;-84
2022/05/15 09:31:30;;;;;;;17.45;3.50;;;24.20;73.30;;;;;;5022934;28;20186;-83
2022/05/15 09:34:06;;;;;;;17.20;3.85;;;24.60;72.60;;;;;;5023284;28;20170;-82
2022/05/15 09:36:34;;;;;;;11.38;3.90;;;24.40;73.50;;;;;;5022655;28;20237;-83
2022/05/15 09:39:24;;;;;;;18.45;3.90;;;24.80;70.40;;;;;;5020052;28;20224;-82
2022/05/15 09:45:16;;;;;;;20.27;3.38;;;25.10;70.80;;;;;;5037874;28;20547;-82
2022/05/15 09:47:45;;;;;;;16.45;3.95;;;25.20;71.20;;;;;;5019578;28;20170;-82
2022/05/15 09:50:43;;;;;;;12.80;3.70;;;24.70;72.20;;;;;;5019354;28;20194;-81
2022/05/15 09:53:14;;;;;;;15.63;3.63;;;25.00;71.40;;;;;;5019328;28;20182;-81
2022/05/15 09:55:40;;;;;;;13.30;3.33;;;25.00;71.00;;;;;;5020733;28;20650;-82
2022/05/15 09:58:18;;;;;;;18.38;3.15;;;24.90;71.80;;;;;;5020395;28;20213;-83
2022/05/15 10:00:44;;;;;;;10.82;3.05;;;24.80;71.80;;;;;;5019458;28;20609;-83
2022/05/15 10:03:21;;;;;;;16.25;3.55;;;25.90;68.90;;;;;;5018605;28;20173;-82
2022/05/15 10:06:01;;;;;;;14.25;4.03;;;25.00;69.90;;;;;;5017993;28;20173;-82
2022/05/15 10:08:28;;;;;;;14.88;3.45;;;25.20;70.00;;;;;;5018339;28;20174;-80
2022/05/15 10:11:06;;;;;;;18.38;3.97;;;24.70;69.60;;;;;;5018406;28;20193;-82
2022/05/15 10:13:36;;;;;;;12.25;3.65;;;24.90;69.70;;;;;;5018098;28;20176;-82
2022/05/15 10:16:17;;;;;;;13.77;3.63;;;25.00;69.70;;;;;;5018354;28;20649;-80
2022/05/15 10:18:55;;;;;;;11.05;3.00;;;24.30;69.40;;;;;;5017981;28;20209;-81
2022/05/15 10:21:27;;;;;;;14.25;3.05;;;24.40;69.00;;;;;;5018436;28;20198;-83
2022/05/15 10:23:57;;;;;;;13.88;3.42;;;24.50;69.40;;;;;;5017870;28;20272;-80
2022/05/15 10:26:27;;;;;;;15.75;3.67;;;24.70;68.70;;;;;;5017549;28;20549;-81
2022/05/15 10:28:59;;;;;;;16.10;3.58;;;25.70;68.10;;;;;;5017087;28;20185;-81
2022/05/15 10:31:30;;;;;;;11.77;3.22;;;25.60;70.00;;;;;;5017353;28;20742;-81
2022/05/15 10:34:02;;;;;;;11.15;3.30;;;25.10;65.90;;;;;;5017889;28;20209;-80
2022/05/15 10:36:56;;;;;;;19.58;3.28;;;24.70;68.20;;;;;;5017199;28;20293;-79
2022/05/15 10:39:28;;;;;;;18.67;3.60;;;25.20;67.90;;;;;;5017013;28;20170;-80
2022/05/15 10:42:07;;;;;;;17.17;3.22;;;25.40;67.10;;;;;;5016771;28;20198;-82
2022/05/15 10:45:04;;;;;;;13.65;3.03;;;26.00;66.90;;;;;;5017200;28;20174;-82
2022/05/15 10:48:05;;;;;;;13.27;3.50;;;25.90;66.30;;;;;;5017275;28;20181;-80
2022/05/15 10:50:45;;;;;;;12.07;3.60;;;26.10;66.60;;;;;;4994708;28;20796;-81
2022/05/15 10:59:09;;;;;;;20.15;3.70;;;25.70;68.20;;;;;;5034798;28;20216;-82
2022/05/15 11:02:06;;;;;;;9.20;3.00;;;25.50;65.50;;;;;;5016467;28;20681;-81
2022/05/15 11:04:43;;;;;;;15.90;4.60;;;25.20;66.60;;;;;;5016256;28;20162;-81
2022/05/15 11:07:19;;;;;;;12.02;5.38;;;26.30;65.80;;;;;;5016501;28;20269;-81
2022/05/15 11:09:54;;;;;;;9.85;3.15;;;26.20;65.90;;;;;;5016327;28;20562;-79
2022/05/15 11:12:45;;;;;;;12.05;3.45;;;26.10;65.60;;;;;;5016347;28;20508;-81
2022/05/15 11:15:26;;;;;;;11.15;3.45;;;26.50;66.70;;;;;;5016776;28;20169;-84
2022/05/15 11:18:19;;;;;;;9.27;3.50;;;26.10;63.70;;;;;;5016071;28;20221;-81
2022/05/15 11:20:55;;;;;;;11.85;3.17;;;25.30;64.40;;;;;;5016120;28;20201;-83
2022/05/15 11:23:31;;;;;;;12.27;3.28;;;25.20;64.00;;;;;;5017273;28;20169;-82
2022/05/15 11:26:26;;;;;;;13.52;3.28;;;25.20;64.50;;;;;;5016133;28;20176;-82
2022/05/15 11:28:55;;;;;;;13.02;3.00;;;25.10;65.20;;;;;;5012912;28;20244;-82
2022/05/15 11:31:27;;;;;;;14.57;3.10;;;25.60;64.50;;;;;;5015376;28;20233;-84
2022/05/15 11:34:02;;;;;;;8.55;3.00;;;26.90;65.30;;;;;;5016120;28;20170;-81
2022/05/15 11:39:05;;;;;;;12.95;3.25;;;27.60;62.10;;;;;;5039935;28;20236;-85
2022/05/15 11:41:34;;;;;;;11.52;3.33;;;26.60;63.00;;;;;;5042486;28;20169;-84
2022/05/15 11:44:04;;;;;;;14.73;3.25;;;26.10;65.10;;;;;;5042833;28;20162;-84
2022/05/15 11:46:58;;;;;;;14.40;3.10;;;26.50;66.10;;;;;;5040033;28;20585;-84
2022/05/15 11:49:39;;;;;;;10.50;3.63;;;26.20;64.50;;;;;;5021748;28;20205;-84
2022/05/15 11:52:14;;;;;;;17.38;3.50;;;26.90;65.00;;;;;;5029407;23;20324;-85
2022/05/15 11:54:49;;;;;;;15.45;3.10;;;26.50;65.10;;;;;;5021745;28;20172;-84
2022/05/15 11:57:45;;;;;;;13.55;3.25;;;25.80;63.60;;;;;;5021233;28;20212;-85
2022/05/15 12:00:25;;;;;;;10.00;3.13;;;26.40;64.40;;;;;;5009968;28;20216;-85
2022/05/15 12:02:53;;;;;;;9.00;3.15;;;25.90;63.10;;;;;;5027919;28;20235;-84
2022/05/15 12:05:36;;;;;;;17.38;3.33;;;26.10;64.20;;;;;;5026941;28;20178;-85
2022/05/15 12:08:28;;;;;;;12.57;3.20;;;25.60;65.00;;;;;;5029030;28;20174;-85
2022/05/15 12:10:57;;;;;;;15.50;3.78;;;25.80;63.80;;;;;;5021532;28;20212;-84
2022/05/15 12:13:37;;;;;;;14.13;3.40;;;26.20;64.40;;;;;;5027595;28;20202;-83
2022/05/15 12:16:26;;;;;;;12.65;3.53;;;25.90;64.60;;;;;;5026148;28;20543;-84
2022/05/15 12:19:24;;;;;;;11.27;3.35;;;25.10;64.40;;;;;;5025791;28;20180;-84
2022/05/15 12:21:53;;;;;;;15.23;2.90;;;25.40;64.70;;;;;;5024387;28;20196;-83
2022/05/15 12:24:28;;;;;;;18.35;3.92;;;25.60;64.50;;;;;;5025253;28;20174;-83
2022/05/15 12:26:57;;;;;;;17.20;3.67;;;24.70;67.10;;;;;;5025974;28;20185;-85
2022/05/15 12:29:45;;;;;;;14.00;3.22;;;24.70;67.50;;;;;;5026689;28;20162;-84
2022/05/15 12:32:34;;;;;;;16.33;3.20;;;25.00;68.60;;;;;;5028560;28;20166;-85
2022/05/15 12:35:02;;;;;;;12.98;3.53;;;25.00;66.60;;;;;;5030807;28;20178;-85
2022/05/15 12:37:34;;;;;;;13.07;3.40;;;24.80;67.00;;;;;;5032738;28;20207;-85
2022/05/15 12:40:02;;;;;;;16.83;3.45;;;24.80;66.00;;;;;;5034006;28;20190;-85
2022/05/15 12:42:40;;;;;;;12.23;3.15;;;24.20;67.60;;;;;;5032331;28;20174;-85
2022/05/15 12:45:19;;;;;;;12.55;3.50;;;24.30;66.80;;;;;;5032676;28;20174;-85
2022/05/15 12:48:17;;;;;;;11.13;2.92;;;24.30;67.90;;;;;;5030512;28;20668;-86
2022/05/15 12:51:03;;;;;;;12.02;3.70;;;24.70;69.40;;;;;;5027851;28;20202;-86
2022/05/15 12:53:40;;;;;;;14.50;3.08;;;25.10;68.90;;;;;;5028686;28;20455;-86
2022/05/15 12:56:15;;;;;;;11.10;3.28;;;25.10;67.90;;;;;;5031530;28;20162;-86
2022/05/15 12:58:46;;;;;;;13.45;3.33;;;24.40;67.30;;;;;;5030120;28;20173;-85
2022/05/15 13:01:13;;;;;;;12.88;3.38;;;24.50;67.00;;;;;;5030460;28;20189;-85
2022/05/15 13:03:43;;;;;;;14.27;3.63;;;24.30;68.50;;;;;;5029158;28;20515;-86
2022/05/15 13:06:09;;;;;;;14.27;3.47;;;24.50;70.80;;;;;;5026904;28;20438;-84
2022/05/15 13:08:43;;;;;;;13.07;3.20;;;24.00;69.30;;;;;;5025981;28;20223;-84
2022/05/15 13:11:12;;;;;;;14.32;3.58;;;24.10;69.30;;;;;;5026223;28;20185;-85
2022/05/15 13:13:39;;;;;;;19.98;4.05;;;24.10;68.80;;;;;;5023472;28;20902;-85
2022/05/15 13:16:14;;;;;;;14.48;3.00;;;24.30;68.10;;;;;;5023556;28;20178;-84
2022/05/15 13:18:45;;;;;;;12.02;3.40;;;24.30;70.00;;;;;;5025134;28;20185;-84
2022/05/15 13:21:11;;;;;;;13.18;3.33;;;23.90;68.70;;;;;;5024443;28;20253;-84
2022/05/15 13:23:47;;;;;;;16.50;3.78;;;24.00;70.60;;;;;;5025246;28;20174;-84